Time;durP1;ratioP1;P1;durP2;ratioP2;P2;SDS_P1;SDS_P2;PMS_P1;PMS_P2;Temp;Humidity;BMP_temperature;BMP_pressure;BME280_temperature;BME280_humidity;BME280_pressure;Samples;Min_cycle;Max_cycle;Signal;HPM_P1;HPM_P2
2022/04/15 00:01:23;;;;;;;12.50;11.60;;;;;;;;;;5061108;28;20036;-71
2022/04/15 00:03:50;;;;;;;12.50;11.32;;;;;;;;;;5081558;28;20032;-71
2022/04/15 00:06:16;;;;;;;11.75;11.00;;;;;;;;;;5087473;28;20414;-71
2022/04/15 00:08:42;;;;;;;12.90;11.75;;;;;;;;;;5088480;28;20036;-71
2022/04/15 00:11:09;;;;;;;12.82;11.85;;;;;;;;;;5067360;28;20044;-71
2022/04/15 00:13:35;;;;;;;13.18;11.93;;;;;;;;;;5083477;28;20403;-71
2022/04/15 00:16:05;;;;;;;14.48;12.80;;;;;;;;;;5090640;28;20032;-71
2022/04/15 00:18:32;;;;;;;14.02;13.00;;;;;;;;;;5089778;28;20039;-71
2022/04/15 00:20:59;;;;;;;16.05;14.82;;;;;;;;;;5082645;28;20036;-71
2022/04/15 00:23:24;;;;;;;16.95;15.18;;;;;;;;;;5064958;28;20055;-71
2022/04/15 00:25:51;;;;;;;16.05;14.52;;;;;;;;;;5063697;28;20032;-71
2022/04/15 00:28:17;;;;;;;14.32;13.30;;;;;;;;;;5087270;28;20036;-71
2022/04/15 00:30:43;;;;;;;14.80;13.70;;;;;;;;;;5062804;28;20032;-71
2022/04/15 00:33:09;;;;;;;14.73;13.27;;;;;;;;;;5084938;28;20027;-70
2022/04/15 00:35:35;;;;;;;14.65;13.13;;;;;;;;;;5087476;28;20047;-71
2022/04/15 00:38:00;;;;;;;13.60;12.27;;;;;;;;;;5083913;28;20044;-71
2022/04/15 00:40:26;;;;;;;14.13;12.93;;;;;;;;;;5082808;28;20028;-71
2022/04/15 00:42:52;;;;;;;14.35;13.25;;;;;;;;;;5084307;28;20024;-70
2022/04/15 00:45:17;;;;;;;13.18;11.85;;;;;;;;;;5086956;28;20043;-70
2022/04/15 00:47:51;;;;;;;13.25;12.18;;;;;;;;;;5083834;28;20043;-70
2022/04/15 00:50:19;;;;;;;13.43;12.32;;;;;;;;;;5088892;28;20038;-70
2022/04/15 00:52:49;;;;;;;12.82;11.82;;;;;;;;;;5091119;28;20618;-70
2022/04/15 00:55:16;;;;;;;13.73;12.73;;;;;;;;;;5084027;28;20479;-70
2022/04/15 00:58:03;;;;;;;13.82;12.70;;;;;;;;;;5077103;28;20618;-70
2022/04/15 01:00:31;;;;;;;14.10;12.98;;;;;;;;;;5087231;28;20046;-71
2022/04/15 01:02:59;;;;;;;13.93;12.82;;;;;;;;;;5090454;28;20044;-70
2022/04/15 01:05:26;;;;;;;14.27;13.02;;;;;;;;;;5080541;28;20044;-70
2022/04/15 01:07:55;;;;;;;13.23;12.10;;;;;;;;;;5088050;28;20078;-71
2022/04/15 01:10:22;;;;;;;14.35;12.98;;;;;;;;;;5054797;28;20043;-71
2022/04/15 01:12:51;;;;;;;13.93;12.75;;;;;;;;;;5090505;28;20039;-70
2022/04/15 01:15:19;;;;;;;13.98;12.80;;;;;;;;;;5087526;28;20044;-70
2022/04/15 01:17:44;;;;;;;13.18;12.07;;;;;;;;;;5080104;28;20040;-71
2022/04/15 01:20:11;;;;;;;13.30;12.40;;;;;;;;;;5089611;28;20426;-71
2022/04/15 01:22:43;;;;;;;13.40;12.32;;;;;;;;;;5072709;28;20089;-70
2022/04/15 01:25:12;;;;;;;13.35;12.27;;;;;;;;;;5085295;28;20044;-71
2022/04/15 01:27:40;;;;;;;12.82;11.73;;;;;;;;;;5086133;28;20058;-70
2022/04/15 01:30:11;;;;;;;13.30;12.20;;;;;;;;;;5090323;28;20122;-71
2022/04/15 01:32:37;;;;;;;13.27;12.13;;;;;;;;;;5087320;28;20124;-70
2022/04/15 01:35:06;;;;;;;13.68;12.55;;;;;;;;;;5085253;28;20532;-71
2022/04/15 01:37:32;;;;;;;13.85;12.65;;;;;;;;;;5090352;28;20032;-70
2022/04/15 01:39:58;;;;;;;14.40;13.10;;;;;;;;;;5088349;28;20032;-71
2022/04/15 01:42:25;;;;;;;13.82;12.57;;;;;;;;;;5085659;28;20039;-71
2022/04/15 01:44:51;;;;;;;13.30;12.20;;;;;;;;;;5087186;28;20036;-70
2022/04/15 01:47:17;;;;;;;13.30;12.13;;;;;;;;;;5089845;28;20049;-70
2022/04/15 01:49:42;;;;;;;13.75;12.65;;;;;;;;;;5070658;28;20039;-71
2022/04/15 01:52:08;;;;;;;13.32;12.10;;;;;;;;;;5066562;28;20127;-71
2022/04/15 01:54:34;;;;;;;13.65;12.32;;;;;;;;;;5085630;28;20081;-70
2022/04/15 01:57:00;;;;;;;12.38;11.38;;;;;;;;;;5062832;28;20038;-71
2022/04/15 01:59:25;;;;;;;12.75;11.75;;;;;;;;;;5085573;28;20513;-71
2022/04/15 02:01:54;;;;;;;13.23;12.07;;;;;;;;;;5089688;28;20042;-71
2022/04/15 02:04:21;;;;;;;13.00;11.98;;;;;;;;;;5071573;28;20500;-71
2022/04/15 02:06:47;;;;;;;14.27;13.05;;;;;;;;;;5083527;28;20040;-70
2022/04/15 02:09:13;;;;;;;14.75;13.57;;;;;;;;;;5060747;28;20376;-71
2022/04/15 02:11:38;;;;;;;14.13;13.02;;;;;;;;;;5089088;28;20638;-71
2022/04/15 02:14:04;;;;;;;14.88;13.60;;;;;;;;;;5080354;28;20089;-71
2022/04/15 02:16:30;;;;;;;14.88;13.57;;;;;;;;;;5080384;28;20027;-71
2022/04/15 02:18:55;;;;;;;15.48;13.38;;;;;;;;;;5087313;28;20028;-70
2022/04/15 02:21:21;;;;;;;15.05;13.85;;;;;;;;;;5070808;28;20376;-71
2022/04/15 02:23:47;;;;;;;14.52;13.25;;;;;;;;;;5062257;28;20038;-71
2022/04/15 02:26:12;;;;;;;14.73;13.52;;;;;;;;;;5086188;28;20043;-71
2022/04/15 02:28:38;;;;;;;14.40;13.00;;;;;;;;;;5089612;28;20035;-70
2022/04/15 02:31:03;;;;;;;14.23;12.77;;;;;;;;;;5083713;28;20392;-70
2022/04/15 02:33:29;;;;;;;14.52;13.45;;;;;;;;;;5079148;28;20518;-70
2022/04/15 02:35:55;;;;;;;13.82;12.80;;;;;;;;;;5076868;28;20403;-70
2022/04/15 02:38:21;;;;;;;14.80;13.70;;;;;;;;;;5087512;28;20067;-70
2022/04/15 02:40:47;;;;;;;14.35;13.25;;;;;;;;;;5089053;28;20031;-69
2022/04/15 02:43:14;;;;;;;15.35;13.90;;;;;;;;;;5065215;28;20044;-70
2022/04/15 02:45:39;;;;;;;16.60;15.20;;;;;;;;;;5080078;28;20491;-70
2022/04/15 02:48:05;;;;;;;15.68;14.35;;;;;;;;;;5088705;28;20111;-70
2022/04/15 02:50:31;;;;;;;15.80;14.40;;;;;;;;;;5089121;28;20028;-69
2022/04/15 02:52:59;;;;;;;15.65;14.32;;;;;;;;;;5082475;28;20142;-69
2022/04/15 02:55:25;;;;;;;16.08;14.68;;;;;;;;;;5078653;28;20503;-70
2022/04/15 02:57:51;;;;;;;15.05;13.80;;;;;;;;;;5079541;28;20475;-70
2022/04/15 03:00:18;;;;;;;15.27;14.10;;;;;;;;;;5088577;28;20080;-70
2022/04/15 03:02:44;;;;;;;14.95;13.82;;;;;;;;;;5068067;28;20032;-72
2022/04/15 03:05:10;;;;;;;14.60;13.32;;;;;;;;;;5066939;28;20047;-71
2022/04/15 03:07:37;;;;;;;18.25;14.10;;;;;;;;;;5078602;28;20044;-72
2022/04/15 03:10:04;;;;;;;14.57;13.52;;;;;;;;;;5048072;28;20033;-71
2022/04/15 03:12:36;;;;;;;14.88;13.68;;;;;;;;;;5063592;28;20034;-71
2022/04/15 03:15:06;;;;;;;15.13;13.90;;;;;;;;;;5084143;28;20513;-72
2022/04/15 03:17:33;;;;;;;15.60;14.23;;;;;;;;;;5085938;28;20039;-71
2022/04/15 03:20:02;;;;;;;14.82;13.73;;;;;;;;;;5082994;28;20029;-71
2022/04/15 03:22:29;;;;;;;15.45;14.07;;;;;;;;;;5083412;28;20391;-72
2022/04/15 03:24:54;;;;;;;15.50;14.30;;;;;;;;;;5082265;28;20040;-71
2022/04/15 03:27:20;;;;;;;16.10;14.45;;;;;;;;;;5062236;28;20044;-72
2022/04/15 03:29:46;;;;;;;16.25;14.68;;;;;;;;;;5077870;28;20525;-71
2022/04/15 03:32:11;;;;;;;16.00;14.65;;;;;;;;;;5072028;28;20066;-71
2022/04/15 03:34:37;;;;;;;16.58;15.07;;;;;;;;;;5085322;28;20031;-71
2022/04/15 03:37:06;;;;;;;15.73;14.35;;;;;;;;;;5078651;28;20048;-71
2022/04/15 03:39:31;;;;;;;16.30;14.88;;;;;;;;;;5083687;28;20437;-71
2022/04/15 03:41:57;;;;;;;15.32;14.13;;;;;;;;;;5088591;28;20040;-71
2022/04/15 03:44:23;;;;;;;16.75;15.35;;;;;;;;;;5080321;28;20032;-71
2022/04/15 03:46:49;;;;;;;16.45;15.07;;;;;;;;;;5078995;28;20508;-71
2022/04/15 03:49:14;;;;;;;17.08;15.68;;;;;;;;;;5088218;28;20028;-71
2022/04/15 03:51:40;;;;;;;17.65;15.98;;;;;;;;;;5088180;28;20046;-71
2022/04/15 03:54:06;;;;;;;19.23;16.48;;;;;;;;;;5080707;28;20032;-71
2022/04/15 03:56:32;;;;;;;18.40;16.48;;;;;;;;;;5058249;28;20032;-71
2022/04/15 03:58:57;;;;;;;17.67;15.98;;;;;;;;;;5075841;28;20051;-71
2022/04/15 04:01:24;;;;;;;18.05;16.30;;;;;;;;;;5085168;28;20032;-70
2022/04/15 04:03:51;;;;;;;17.85;16.17;;;;;;;;;;5083243;28;20035;-71
2022/04/15 04:06:17;;;;;;;17.52;16.02;;;;;;;;;;5069151;28;20048;-71
2022/04/15 04:08:49;;;;;;;17.77;15.90;;;;;;;;;;5076738;28;20368;-71
2022/04/15 04:11:19;;;;;;;17.52;15.75;;;;;;;;;;5078458;28;20032;-71
2022/04/15 04:13:45;;;;;;;17.13;15.63;;;;;;;;;;5078892;28;20024;-71
2022/04/15 04:16:12;;;;;;;16.80;15.15;;;;;;;;;;5080361;28;20116;-71
2022/04/15 04:18:41;;;;;;;16.23;14.82;;;;;;;;;;5084686;28;20039;-71
2022/04/15 04:21:07;;;;;;;17.08;15.60;;;;;;;;;;5080216;28;20504;-75
2022/04/15 04:23:34;;;;;;;16.73;15.43;;;;;;;;;;5055311;28;20041;-74
2022/04/15 04:26:00;;;;;;;18.60;15.80;;;;;;;;;;5067575;28;20033;-74
2022/04/15 04:28:26;;;;;;;17.17;15.68;;;;;;;;;;5095496;28;20051;-74
2022/04/15 04:30:52;;;;;;;17.05;15.52;;;;;;;;;;5090697;28;20144;-74
2022/04/15 04:33:19;;;;;;;16.52;15.07;;;;;;;;;;5071877;28;20040;-74
2022/04/15 04:35:44;;;;;;;16.77;15.38;;;;;;;;;;5094830;28;20066;-74
2022/04/15 04:38:10;;;;;;;17.80;14.90;;;;;;;;;;5091110;28;20113;-74
2022/04/15 04:40:36;;;;;;;16.80;15.43;;;;;;;;;;5089608;28;20032;-74
2022/04/15 04:43:04;;;;;;;18.52;16.73;;;;;;;;;;5084278;28;20157;-74
2022/04/15 04:45:33;;;;;;;18.00;16.42;;;;;;;;;;5073331;28;20090;-74
2022/04/15 04:48:01;;;;;;;18.27;16.33;;;;;;;;;;5081575;28;20036;-74
2022/04/15 04:50:28;;;;;;;18.13;16.42;;;;;;;;;;5091023;28;20060;-75
2022/04/15 04:52:53;;;;;;;17.42;16.08;;;;;;;;;;5093669;28;20028;-75
2022/04/15 04:55:19;;;;;;;16.83;15.43;;;;;;;;;;5086342;28;20023;-75
2022/04/15 04:57:45;;;;;;;17.17;15.40;;;;;;;;;;5087447;28;20491;-75
2022/04/15 05:00:13;;;;;;;17.40;15.90;;;;;;;;;;5091335;28;20038;-75
2022/04/15 05:02:39;;;;;;;17.25;15.75;;;;;;;;;;5094084;28;20020;-75
2022/04/15 05:05:06;;;;;;;17.63;16.15;;;;;;;;;;5094168;28;20047;-75
2022/04/15 05:07:32;;;;;;;17.85;16.23;;;;;;;;;;5085804;28;20027;-75
2022/04/15 05:09:57;;;;;;;18.92;17.30;;;;;;;;;;5093013;28;20081;-75
2022/04/15 05:12:23;;;;;;;17.77;16.00;;;;;;;;;;5093472;28;20032;-75
2022/04/15 05:14:49;;;;;;;16.85;15.35;;;;;;;;;;5070566;28;20451;-75
2022/04/15 05:17:15;;;;;;;17.23;15.43;;;;;;;;;;5084369;28;20036;-75
2022/04/15 05:19:41;;;;;;;16.35;14.95;;;;;;;;;;5070040;28;20060;-74
2022/04/15 05:22:08;;;;;;;17.67;15.88;;;;;;;;;;5090572;28;20040;-75
2022/04/15 05:24:33;;;;;;;17.40;15.73;;;;;;;;;;5089001;28;20100;-75
2022/04/15 05:26:59;;;;;;;17.35;15.50;;;;;;;;;;5083278;28;20032;-74
2022/04/15 05:29:24;;;;;;;15.88;14.25;;;;;;;;;;5071387;28;20119;-75
2022/04/15 05:31:50;;;;;;;16.08;14.77;;;;;;;;;;5088216;28;20089;-75
2022/04/15 05:34:16;;;;;;;16.38;14.73;;;;;;;;;;5089565;28;20064;-74
2022/04/15 05:36:42;;;;;;;15.52;14.07;;;;;;;;;;5073472;22;20459;-68
2022/04/15 05:39:07;;;;;;;15.38;14.07;;;;;;;;;;5068949;28;20036;-68
2022/04/15 05:41:33;;;;;;;15.23;14.10;;;;;;;;;;5070172;28;20584;-68
2022/04/15 05:43:59;;;;;;;15.50;13.32;;;;;;;;;;5058549;28;20044;-69
2022/04/15 05:46:27;;;;;;;14.60;13.45;;;;;;;;;;5060661;28;20400;-68
2022/04/15 05:48:53;;;;;;;14.90;13.70;;;;;;;;;;5070267;28;20390;-68
2022/04/15 05:51:19;;;;;;;15.32;13.80;;;;;;;;;;5070264;28;20032;-68
2022/04/15 05:53:45;;;;;;;15.15;13.95;;;;;;;;;;5066623;28;20037;-68
2022/04/15 05:56:11;;;;;;;14.23;13.07;;;;;;;;;;5069607;28;20033;-68
2022/04/15 05:58:37;;;;;;;14.68;13.38;;;;;;;;;;5052327;28;20043;-69
2022/04/15 06:01:05;;;;;;;14.95;13.55;;;;;;;;;;5070380;28;20064;-69
2022/04/15 06:03:34;;;;;;;15.40;14.10;;;;;;;;;;5067924;28;20094;-69
2022/04/15 06:06:00;;;;;;;16.38;13.52;;;;;;;;;;5069173;28;20038;-68
2022/04/15 06:08:26;;;;;;;15.57;14.38;;;;;;;;;;5051331;28;20091;-68
2022/04/15 06:10:52;;;;;;;15.30;14.10;;;;;;;;;;5068622;28;20029;-69
2022/04/15 06:13:22;;;;;;;15.35;14.25;;;;;;;;;;5069484;28;20068;-68
2022/04/15 06:15:51;;;;;;;16.05;14.65;;;;;;;;;;5070148;28;20553;-69
2022/04/15 06:18:21;;;;;;;15.63;14.25;;;;;;;;;;5050423;28;20032;-69
2022/04/15 06:20:48;;;;;;;15.30;14.10;;;;;;;;;;5068709;28;20119;-69
2022/04/15 06:23:14;;;;;;;15.00;13.68;;;;;;;;;;5051350;28;20777;-68
2022/04/15 06:25:41;;;;;;;14.48;13.48;;;;;;;;;;5069116;28;20056;-68
2022/04/15 06:28:07;;;;;;;14.65;13.30;;;;;;;;;;5064140;28;20058;-69
2022/04/15 06:30:33;;;;;;;15.00;13.77;;;;;;;;;;5065732;28;20032;-69
2022/04/15 06:32:58;;;;;;;14.63;13.63;;;;;;;;;;5068161;28;20029;-69
2022/04/15 06:35:24;;;;;;;15.15;13.85;;;;;;;;;;5068322;28;20040;-69
2022/04/15 06:37:50;;;;;;;16.10;13.80;;;;;;;;;;5069252;28;20037;-69
2022/04/15 06:40:15;;;;;;;13.90;12.73;;;;;;;;;;5049694;28;20077;-68
2022/04/15 06:42:41;;;;;;;14.32;13.13;;;;;;;;;;5070226;28;20032;-68
2022/04/15 06:45:07;;;;;;;14.13;13.13;;;;;;;;;;5059689;28;20036;-68
2022/04/15 06:47:33;;;;;;;13.93;12.85;;;;;;;;;;5070533;28;20036;-69
2022/04/15 06:49:58;;;;;;;13.95;12.85;;;;;;;;;;5068635;28;20086;-68
2022/04/15 06:52:24;;;;;;;13.73;12.73;;;;;;;;;;5077970;28;20100;-69
2022/04/15 06:54:49;;;;;;;14.05;12.90;;;;;;;;;;5054549;28;20036;-68
2022/04/15 06:57:15;;;;;;;13.57;12.45;;;;;;;;;;5070797;28;20024;-69
2022/04/15 06:59:42;;;;;;;14.18;13.00;;;;;;;;;;5074092;28;20029;-69
2022/04/15 07:02:07;;;;;;;14.30;13.10;;;;;;;;;;5073215;28;20135;-69
2022/04/15 07:04:34;;;;;;;13.75;12.75;;;;;;;;;;5069692;28;20574;-69
2022/04/15 07:07:00;;;;;;;13.73;12.70;;;;;;;;;;5067844;28;20033;-69
2022/04/15 07:09:26;;;;;;;13.65;12.75;;;;;;;;;;5068486;28;20113;-69
2022/04/15 07:11:52;;;;;;;13.90;12.90;;;;;;;;;;5051041;28;20028;-69
2022/04/15 07:14:17;;;;;;;14.50;13.18;;;;;;;;;;5066000;28;20032;-69
2022/04/15 07:16:43;;;;;;;13.85;12.85;;;;;;;;;;5068362;28;20139;-69
2022/04/15 07:19:09;;;;;;;14.43;13.23;;;;;;;;;;5068182;28;20033;-68
2022/04/15 07:21:36;;;;;;;13.93;12.82;;;;;;;;;;5064476;28;20029;-69
2022/04/15 07:24:02;;;;;;;15.52;14.30;;;;;;;;;;5067473;28;20075;-69
2022/04/15 07:26:28;;;;;;;15.75;14.35;;;;;;;;;;5050004;28;20036;-69
2022/04/15 07:28:54;;;;;;;15.68;14.38;;;;;;;;;;5068514;28;20029;-69
2022/04/15 07:31:20;;;;;;;15.13;13.73;;;;;;;;;;5064161;28;20033;-69
2022/04/15 07:33:48;;;;;;;15.02;13.73;;;;;;;;;;5066722;28;20028;-69
2022/04/15 07:38:59;;;;;;;15.88;14.35;;;;;;;;;;5059325;28;20040;-69
2022/04/15 07:41:24;;;;;;;15.70;14.27;;;;;;;;;;5066608;28;20032;-69
2022/04/15 07:43:50;;;;;;;16.23;14.73;;;;;;;;;;5050142;28;20067;-69
2022/04/15 07:46:16;;;;;;;15.73;14.40;;;;;;;;;;5068561;28;20098;-69
2022/04/15 07:48:42;;;;;;;16.98;15.60;;;;;;;;;;5068276;28;20024;-69
2022/04/15 07:51:08;;;;;;;16.60;15.30;;;;;;;;;;5028559;28;20041;-69
2022/04/15 07:53:34;;;;;;;16.63;15.07;;;;;;;;;;5071520;28;20494;-69
2022/04/15 07:56:00;;;;;;;17.60;15.65;;;;;;;;;;5071520;28;20132;-69
2022/04/15 07:58:25;;;;;;;17.05;15.65;;;;;;;;;;5069222;28;20032;-69
2022/04/15 08:00:51;;;;;;;18.27;16.88;;;;;;;;;;5066222;28;20075;-69
2022/04/15 08:03:22;;;;;;;18.15;16.27;;;;;;;;;;5066686;28;20128;-69
2022/04/15 08:05:48;;;;;;;18.75;17.10;;;;;;;;;;5049626;28;20041;-69
2022/04/15 08:08:14;;;;;;;19.65;17.85;;;;;;;;;;5048131;28;20041;-70
2022/04/15 08:10:40;;;;;;;18.33;16.52;;;;;;;;;;5067197;28;20028;-70
2022/04/15 08:13:06;;;;;;;19.73;17.67;;;;;;;;;;5071145;28;20043;-69
2022/04/15 08:15:32;;;;;;;18.73;16.77;;;;;;;;;;5062573;28;20675;-69
2022/04/15 08:17:58;;;;;;;16.65;15.35;;;;;;;;;;5051586;28;20592;-69
2022/04/15 08:20:24;;;;;;;17.58;16.05;;;;;;;;;;5073717;28;20082;-70
2022/04/15 08:22:50;;;;;;;17.02;15.52;;;;;;;;;;5073513;28;20032;-70
2022/04/15 08:25:15;;;;;;;17.30;15.48;;;;;;;;;;5072575;28;20037;-70
2022/04/15 08:27:41;;;;;;;17.13;15.38;;;;;;;;;;5072779;28;20475;-69
2022/04/15 08:30:07;;;;;;;17.55;15.85;;;;;;;;;;5073623;28;20032;-70
2022/04/15 08:32:33;;;;;;;17.17;15.27;;;;;;;;;;5054966;28;20033;-70
2022/04/15 08:35:03;;;;;;;18.08;16.25;;;;;;;;;;5079328;28;20028;-69
2022/04/15 08:37:29;;;;;;;17.75;16.23;;;;;;;;;;5070700;28;20062;-70
2022/04/15 08:39:55;;;;;;;17.60;16.10;;;;;;;;;;5076158;28;20066;-70
2022/04/15 08:42:21;;;;;;;17.73;16.15;;;;;;;;;;5056915;28;20047;-69
2022/04/15 08:44:50;;;;;;;17.60;15.90;;;;;;;;;;5063093;28;20033;-70
2022/04/15 08:47:16;;;;;;;17.13;15.48;;;;;;;;;;5068059;28;20044;-70
2022/04/15 08:49:41;;;;;;;17.88;16.27;;;;;;;;;;5073446;28;20029;-69
2022/04/15 08:52:11;;;;;;;16.80;15.20;;;;;;;;;;5071484;28;20078;-70
2022/04/15 08:54:37;;;;;;;18.80;16.92;;;;;;;;;;5071627;28;20439;-70
2022/04/15 08:57:03;;;;;;;19.00;17.00;;;;;;;;;;5072730;28;20032;-69
2022/04/15 08:59:29;;;;;;;19.85;16.67;;;;;;;;;;5070894;28;20036;-69
2022/04/15 09:01:55;;;;;;;17.83;16.13;;;;;;;;;;5070131;28;20491;-69
2022/04/15 09:04:21;;;;;;;17.73;16.13;;;;;;;;;;5066613;28;20040;-69
2022/04/15 09:06:55;;;;;;;18.13;16.42;;;;;;;;;;5068785;28;20085;-69
2022/04/15 09:09:20;;;;;;;17.75;16.08;;;;;;;;;;5075226;28;20024;-69
2022/04/15 09:11:48;;;;;;;17.58;15.93;;;;;;;;;;5068279;28;20519;-69
2022/04/15 09:14:15;;;;;;;18.17;16.65;;;;;;;;;;5069022;28;20032;-68
2022/04/15 09:16:48;;;;;;;18.48;16.88;;;;;;;;;;5065319;28;20028;-68
2022/04/15 09:19:14;;;;;;;19.90;18.13;;;;;;;;;;5070907;28;20036;-68
2022/04/15 09:21:54;;;;;;;20.20;18.20;;;;;;;;;;5066710;28;20048;-69
2022/04/15 09:24:29;;;;;;;20.95;19.13;;;;;;;;;;5052090;28;20040;-68
2022/04/15 09:26:55;;;;;;;18.85;17.23;;;;;;;;;;5070292;28;20032;-68
2022/04/15 09:29:23;;;;;;;19.60;17.90;;;;;;;;;;5079232;28;20032;-68
2022/04/15 09:31:55;;;;;;;18.58;16.98;;;;;;;;;;5074298;28;20044;-69
2022/04/15 09:34:21;;;;;;;18.05;16.48;;;;;;;;;;5053400;28;20035;-69
2022/04/15 09:36:47;;;;;;;20.38;18.23;;;;;;;;;;5069459;28;20032;-69
2022/04/15 09:39:17;;;;;;;19.23;17.27;;;;;;;;;;5070528;28;20040;-69
2022/04/15 09:41:51;;;;;;;18.92;17.23;;;;;;;;;;5068098;28;20108;-69
2022/04/15 09:44:17;;;;;;;19.98;17.98;;;;;;;;;;5069461;28;20125;-68
2022/04/15 09:46:44;;;;;;;22.17;20.20;;;;;;;;;;5065250;28;20483;-68
2022/04/15 09:49:11;;;;;;;20.90;19.00;;;;;;;;;;5066626;28;20396;-68
2022/04/15 09:51:54;;;;;;;21.08;19.27;;;;;;;;;;5069103;28;20178;-69
2022/04/15 09:54:24;;;;;;;21.30;18.00;;;;;;;;;;5066324;28;20139;-68
2022/04/15 09:56:51;;;;;;;19.17;17.42;;;;;;;;;;5064033;28;20036;-68
2022/04/15 09:59:21;;;;;;;21.92;19.92;;;;;;;;;;5069208;28;20059;-68
2022/04/15 10:01:48;;;;;;;19.08;17.35;;;;;;;;;;5068813;28;20119;-69
2022/04/15 10:04:15;;;;;;;20.15;18.35;;;;;;;;;;5068943;28;20044;-69
2022/04/15 10:06:42;;;;;;;18.38;16.77;;;;;;;;;;5064341;28;20112;-69
2022/04/15 10:09:12;;;;;;;17.73;16.13;;;;;;;;;;5068747;28;20032;-68
2022/04/15 10:11:43;;;;;;;17.98;16.40;;;;;;;;;;5069252;28;20139;-69
2022/04/15 10:14:09;;;;;;;18.35;16.65;;;;;;;;;;5069129;28;20447;-68
2022/04/15 10:16:37;;;;;;;18.00;16.30;;;;;;;;;;5050134;28;20484;-68
2022/04/15 10:19:03;;;;;;;19.20;17.60;;;;;;;;;;5064495;28;20040;-68
2022/04/15 10:21:36;;;;;;;16.30;14.88;;;;;;;;;;5069889;28;20036;-69
2022/04/15 10:24:03;;;;;;;17.10;15.35;;;;;;;;;;5061039;28;20041;-68
2022/04/15 10:26:34;;;;;;;16.02;14.57;;;;;;;;;;5048956;28;20123;-68
2022/04/15 10:29:03;;;;;;;17.83;16.20;;;;;;;;;;5065559;28;20028;-68
2022/04/15 10:31:43;;;;;;;17.50;15.88;;;;;;;;;;5066317;28;20040;-70
2022/04/15 10:34:15;;;;;;;15.90;14.50;;;;;;;;;;5067489;28;21682;-68
2022/04/15 10:36:46;;;;;;;17.85;16.35;;;;;;;;;;5064938;28;20059;-69
2022/04/15 10:39:14;;;;;;;18.77;16.92;;;;;;;;;;5050372;28;20115;-69
2022/04/15 10:41:43;;;;;;;22.70;17.17;;;;;;;;;;5064042;28;20041;-70
2022/04/15 10:44:14;;;;;;;16.65;15.25;;;;;;;;;;5068449;28;20124;-68
2022/04/15 10:46:40;;;;;;;17.33;15.93;;;;;;;;;;5067738;28;20066;-68
2022/04/15 10:49:26;;;;;;;15.80;14.48;;;;;;;;;;5068597;28;20499;-68
2022/04/15 10:51:57;;;;;;;16.63;14.93;;;;;;;;;;5051199;28;20035;-68
2022/04/15 10:54:35;;;;;;;17.40;15.82;;;;;;;;;;5068205;28;20448;-68
2022/04/15 10:57:14;;;;;;;16.73;15.13;;;;;;;;;;5069507;28;20064;-68
2022/04/15 11:02:57;;;;;;;17.27;15.65;;;;;;;;;;5059827;28;20036;-70
2022/04/15 11:05:54;;;;;;;16.15;14.65;;;;;;;;;;5057318;28;20044;-69
2022/04/15 11:08:22;;;;;;;14.35;13.23;;;;;;;;;;5050477;28;20082;-68
2022/04/15 11:11:02;;;;;;;16.75;15.05;;;;;;;;;;5070263;28;20037;-68
2022/04/15 11:13:40;;;;;;;14.60;13.50;;;;;;;;;;5049245;28;20040;-69
2022/04/15 11:18:43;;;;;;;20.25;15.40;;;;;;;;;;5068200;28;20032;-68
2022/04/15 11:21:17;;;;;;;16.38;14.98;;;;;;;;;;5068231;28;20106;-68
2022/04/15 11:23:52;;;;;;;14.70;13.52;;;;;;;;;;5065763;28;20107;-68
2022/04/15 11:26:22;;;;;;;16.98;15.57;;;;;;;;;;5063783;28;20119;-68
2022/04/15 11:28:52;;;;;;;16.58;15.15;;;;;;;;;;5067605;28;20505;-68
2022/04/15 11:31:25;;;;;;;15.90;14.43;;;;;;;;;;5063494;28;20029;-68
2022/04/15 11:33:52;;;;;;;15.05;13.75;;;;;;;;;;5065670;28;20066;-70
2022/04/15 11:36:18;;;;;;;14.55;13.32;;;;;;;;;;5068084;28;20070;-69
2022/04/15 11:38:48;;;;;;;14.40;13.30;;;;;;;;;;5067919;28;20049;-68
2022/04/15 11:41:21;;;;;;;14.75;13.50;;;;;;;;;;5064657;28;20040;-69
2022/04/15 11:43:59;;;;;;;13.60;12.48;;;;;;;;;;5067116;28;20039;-68
2022/04/15 11:46:48;;;;;;;15.67;14.37;;;;;;;;;;5067426;28;20135;-68
2022/04/15 11:49:27;;;;;;;13.73;12.52;;;;;;;;;;5044609;28;20407;-68
2022/04/15 11:51:58;;;;;;;14.30;13.20;;;;;;;;;;5049249;28;20127;-69
2022/04/15 11:54:30;;;;;;;14.73;13.63;;;;;;;;;;5067317;28;20389;-69
2022/04/15 11:56:57;;;;;;;14.95;13.55;;;;;;;;;;5067616;28;20033;-68
2022/04/15 11:59:26;;;;;;;13.73;12.63;;;;;;;;;;5062737;28;20075;-69
2022/04/15 12:01:57;;;;;;;15.07;13.73;;;;;;;;;;5065521;28;20135;-69
2022/04/15 12:04:23;;;;;;;15.05;13.77;;;;;;;;;;5066341;28;20040;-68
2022/04/15 12:06:48;;;;;;;13.57;12.27;;;;;;;;;;5063195;28;20047;-69
2022/04/15 12:09:16;;;;;;;14.80;13.60;;;;;;;;;;5067241;28;20519;-68
2022/04/15 12:11:42;;;;;;;15.57;14.02;;;;;;;;;;5061151;28;20024;-68
2022/04/15 12:14:09;;;;;;;14.98;13.70;;;;;;;;;;5067332;28;20090;-68
2022/04/15 12:16:39;;;;;;;16.98;15.38;;;;;;;;;;5066709;28;20039;-68
2022/04/15 12:19:06;;;;;;;16.30;15.07;;;;;;;;;;5062733;28;20038;-68
2022/04/15 12:21:33;;;;;;;17.05;15.45;;;;;;;;;;5066812;28;20044;-68
2022/04/15 12:24:13;;;;;;;17.02;15.27;;;;;;;;;;5066500;28;20037;-68
2022/04/15 12:26:49;;;;;;;15.75;14.32;;;;;;;;;;5062946;28;20098;-68
2022/04/15 12:32:25;;;;;;;15.85;14.45;;;;;;;;;;5063201;28;20527;-69
2022/04/15 12:34:54;;;;;;;16.15;14.75;;;;;;;;;;5061489;28;20120;-72
2022/04/15 12:37:35;;;;;;;16.45;15.10;;;;;;;;;;5061541;28;20040;-68
2022/04/15 12:40:09;;;;;;;18.35;14.85;;;;;;;;;;5064513;28;20064;-69
2022/04/15 12:42:37;;;;;;;16.50;15.07;;;;;;;;;;5066146;28;20051;-69
2022/04/15 12:45:09;;;;;;;16.92;15.15;;;;;;;;;;5050943;28;20301;-68
2022/04/15 12:47:35;;;;;;;16.67;15.18;;;;;;;;;;5067222;28;20056;-69
2022/04/15 12:50:24;;;;;;;15.50;14.20;;;;;;;;;;5068537;28;20056;-68
2022/04/15 12:52:52;;;;;;;15.57;14.18;;;;;;;;;;5046492;28;20032;-69
2022/04/15 12:55:25;;;;;;;16.60;15.20;;;;;;;;;;5068143;28;20575;-68
2022/04/15 12:57:51;;;;;;;15.63;14.20;;;;;;;;;;5069177;28;20495;-69
2022/04/15 13:00:17;;;;;;;16.52;15.13;;;;;;;;;;5068477;28;20075;-69
2022/04/15 13:02:42;;;;;;;15.52;14.02;;;;;;;;;;5048576;28;20060;-68
2022/04/15 13:05:09;;;;;;;15.57;14.38;;;;;;;;;;5067988;28;20048;-69
2022/04/15 13:07:37;;;;;;;15.23;14.00;;;;;;;;;;5050557;28;20182;-69
2022/04/15 13:10:05;;;;;;;15.38;14.07;;;;;;;;;;5068388;28;20119;-68
2022/04/15 13:12:31;;;;;;;16.98;15.38;;;;;;;;;;5061619;28;20036;-68
2022/04/15 13:14:56;;;;;;;15.77;14.55;;;;;;;;;;5068290;28;20044;-69
2022/04/15 13:17:22;;;;;;;17.08;15.45;;;;;;;;;;5068745;28;20631;-68
2022/04/15 13:19:48;;;;;;;16.40;14.98;;;;;;;;;;5066603;28;20036;-67
2022/04/15 13:22:16;;;;;;;16.92;15.48;;;;;;;;;;5068165;28;20464;-68
2022/04/15 13:24:41;;;;;;;16.20;14.80;;;;;;;;;;5067762;28;20092;-68
2022/04/15 13:27:07;;;;;;;14.90;13.60;;;;;;;;;;5068695;28;20069;-68
2022/04/15 13:29:34;;;;;;;14.35;13.23;;;;;;;;;;5049794;28;20051;-68
2022/04/15 13:32:01;;;;;;;13.68;12.63;;;;;;;;;;5067321;28;20093;-68
2022/04/15 13:34:33;;;;;;;15.00;13.65;;;;;;;;;;5065772;28;20040;-68
2022/04/15 13:37:00;;;;;;;15.38;14.07;;;;;;;;;;5067820;28;20028;-68
2022/04/15 13:39:27;;;;;;;14.77;13.50;;;;;;;;;;5067079;28;20040;-68
2022/04/15 13:41:52;;;;;;;13.82;12.80;;;;;;;;;;5043693;28;20028;-69
2022/04/15 13:44:18;;;;;;;13.90;12.80;;;;;;;;;;5062383;28;20047;-68
2022/04/15 13:46:44;;;;;;;13.23;12.05;;;;;;;;;;5067320;28;20062;-68
2022/04/15 13:49:09;;;;;;;13.00;12.00;;;;;;;;;;5068469;28;20123;-68
2022/04/15 13:51:35;;;;;;;13.55;12.45;;;;;;;;;;5062359;28;20028;-68
2022/04/15 13:56:45;;;;;;;13.27;12.18;;;;;;;;;;5064595;28;20113;-68
2022/04/15 13:59:13;;;;;;;13.07;11.90;;;;;;;;;;5066554;28;20588;-68
2022/04/15 14:01:41;;;;;;;14.13;13.02;;;;;;;;;;5047875;28;20125;-68
2022/04/15 14:04:10;;;;;;;14.25;13.15;;;;;;;;;;5065762;28;20087;-69
2022/04/15 14:06:40;;;;;;;;;;;;;;;;;;5068324;28;20081;-68
2022/04/15 14:09:07;;;;;;;14.23;12.73;;;;;;;;;;5064241;28;19920;-68
2022/04/15 14:11:37;;;;;;;13.98;12.93;;;;;;;;;;5067980;28;20044;-68
2022/04/15 14:14:04;;;;;;;13.30;12.20;;;;;;;;;;5067257;28;20039;-68
2022/04/15 14:16:31;;;;;;;13.30;12.27;;;;;;;;;;5065671;28;20048;-67
2022/04/15 14:18:57;;;;;;;14.52;13.35;;;;;;;;;;5067805;28;20471;-69
2022/04/15 14:21:24;;;;;;;13.65;12.57;;;;;;;;;;5067910;28;20042;-69
2022/04/15 14:23:50;;;;;;;14.02;12.85;;;;;;;;;;5065803;28;20064;-69
2022/04/15 14:26:16;;;;;;;12.63;11.63;;;;;;;;;;5065712;28;20120;-69
2022/04/15 14:28:42;;;;;;;13.88;12.52;;;;;;;;;;5067140;28;20612;-69
2022/04/15 14:31:09;;;;;;;12.30;11.40;;;;;;;;;;5066689;28;20036;-69
2022/04/15 14:33:36;;;;;;;13.93;12.93;;;;;;;;;;5064899;28;20415;-69
2022/04/15 14:36:03;;;;;;;12.82;11.90;;;;;;;;;;5066420;28;20043;-69